sensor_id;sensor_type;location;lat;lon;timestamp;temperature;humidity
29501;DHT22;16450;50.288;10.966;2022-09-20T00:00:05;8.70;97.70
29501;DHT22;16450;50.288;10.966;2022-09-20T00:03:07;8.60;97.60
29501;DHT22;16450;50.288;10.966;2022-09-20T00:06:09;8.70;97.70
29501;DHT22;16450;50.288;10.966;2022-09-20T00:09:10;8.60;97.70
29501;DHT22;16450;50.288;10.966;2022-09-20T00:12:11;8.70;97.80
29501;DHT22;16450;50.288;10.966;2022-09-20T00:15:12;8.60;97.70
29501;DHT22;16450;50.288;10.966;2022-09-20T00:18:12;8.50;97.60
29501;DHT22;16450;50.288;10.966;2022-09-20T00:21:18;8.60;97.60
29501;DHT22;16450;50.288;10.966;2022-09-20T00:24:19;8.60;97.50
29501;DHT22;16450;50.288;10.966;2022-09-20T00:27:19;8.60;97.60
29501;DHT22;16450;50.288;10.966;2022-09-20T00:30:20;8.60;97.60
29501;DHT22;16450;50.288;10.966;2022-09-20T00:33:22;8.60;97.50
29501;DHT22;16450;50.288;10.966;2022-09-20T00:36:24;8.50;97.20
29501;DHT22;16450;50.288;10.966;2022-09-20T00:39:26;8.50;97.00
29501;DHT22;16450;50.288;10.966;2022-09-20T00:42:28;8.50;96.80
29501;DHT22;16450;50.288;10.966;2022-09-20T00:45:29;8.40;96.70
29501;DHT22;16450;50.288;10.966;2022-09-20T00:48:31;8.40;96.80
29501;DHT22;16450;50.288;10.966;2022-09-20T00:51:38;8.30;96.90
29501;DHT22;16450;50.288;10.966;2022-09-20T00:54:40;8.30;97.00
29501;DHT22;16450;50.288;10.966;2022-09-20T00:57:42;8.30;97.20
29501;DHT22;16450;50.288;10.966;2022-09-20T01:00:44;8.30;97.30
29501;DHT22;16450;50.288;10.966;2022-09-20T01:03:46;8.30;97.30
29501;DHT22;16450;50.288;10.966;2022-09-20T01:06:50;8.20;97.30
29501;DHT22;16450;50.288;10.966;2022-09-20T01:09:53;8.20;97.30
29501;DHT22;16450;50.288;10.966;2022-09-20T01:12:53;8.20;97.30
29501;DHT22;16450;50.288;10.966;2022-09-20T01:15:56;8.20;97.40
29501;DHT22;16450;50.288;10.966;2022-09-20T01:19:01;8.20;97.50
29501;DHT22;16450;50.288;10.966;2022-09-20T01:22:24;8.20;97.60
29501;DHT22;16450;50.288;10.966;2022-09-20T01:32:27;8.20;97.80
29501;DHT22;16450;50.288;10.966;2022-09-20T01:35:32;8.30;98.20
29501;DHT22;16450;50.288;10.966;2022-09-20T01:38:43;8.30;98.20
29501;DHT22;16450;50.288;10.966;2022-09-20T01:41:53;8.30;98.00
29501;DHT22;16450;50.288;10.966;2022-09-20T01:45:00;8.30;98.00
29501;DHT22;16450;50.288;10.966;2022-09-20T02:02:05;8.40;97.80
29501;DHT22;16450;50.288;10.966;2022-09-20T02:11:58;8.30;97.40
29501;DHT22;16450;50.288;10.966;2022-09-20T02:28:58;7.90;96.80
29501;DHT22;16450;50.288;10.966;2022-09-20T02:42:12;7.60;96.40
29501;DHT22;16450;50.288;10.966;2022-09-20T02:45:29;7.60;96.30
29501;DHT22;16450;50.288;10.966;2022-09-20T02:49:02;7.50;96.40
29501;DHT22;16450;50.288;10.966;2022-09-20T02:55:30;7.30;96.50
29501;DHT22;16450;50.288;10.966;2022-09-20T03:02:08;7.20;96.90
29501;DHT22;16450;50.288;10.966;2022-09-20T03:08:24;7.20;97.50
29501;DHT22;16450;50.288;10.966;2022-09-20T03:18:33;7.20;97.30
29501;DHT22;16450;50.288;10.966;2022-09-20T03:22:21;7.20;97.60
29501;DHT22;16450;50.288;10.966;2022-09-20T03:25:21;7.20;98.10
29501;DHT22;16450;50.288;10.966;2022-09-20T03:35:55;7.30;98.50
29501;DHT22;16450;50.288;10.966;2022-09-20T03:42:27;7.40;98.40
29501;DHT22;16450;50.288;10.966;2022-09-20T03:45:43;7.40;98.70
29501;DHT22;16450;50.288;10.966;2022-09-20T03:55:51;7.50;98.70
29501;DHT22;16450;50.288;10.966;2022-09-20T04:16:42;7.70;98.90
29501;DHT22;16450;50.288;10.966;2022-09-20T04:19:46;7.70;99.10
29501;DHT22;16450;50.288;10.966;2022-09-20T04:22:53;7.80;99.30
29501;DHT22;16450;50.288;10.966;2022-09-20T04:25:56;7.80;99.20
29501;DHT22;16450;50.288;10.966;2022-09-20T04:36:35;7.80;99.00
29501;DHT22;16450;50.288;10.966;2022-09-20T04:39:48;7.80;99.20
29501;DHT22;16450;50.288;10.966;2022-09-20T04:46:34;7.90;99.30
29501;DHT22;16450;50.288;10.966;2022-09-20T05:00:13;7.90;99.20
29501;DHT22;16450;50.288;10.966;2022-09-20T05:03:46;7.90;99.30
29501;DHT22;16450;50.288;10.966;2022-09-20T05:07:16;7.90;99.20
29501;DHT22;16450;50.288;10.966;2022-09-20T05:14:19;7.90;99.10
29501;DHT22;16450;50.288;10.966;2022-09-20T05:17:51;8.00;99.00
29501;DHT22;16450;50.288;10.966;2022-09-20T05:21:28;8.00;98.90
29501;DHT22;16450;50.288;10.966;2022-09-20T05:27:58;8.00;98.90
29501;DHT22;16450;50.288;10.966;2022-09-20T05:34:44;8.10;99.10
29501;DHT22;16450;50.288;10.966;2022-09-20T05:39:03;8.10;99.00
29501;DHT22;16450;50.288;10.966;2022-09-20T05:45:56;8.10;99.00
29501;DHT22;16450;50.288;10.966;2022-09-20T05:59:12;8.20;99.30
29501;DHT22;16450;50.288;10.966;2022-09-20T06:02:37;8.20;99.30
29501;DHT22;16450;50.288;10.966;2022-09-20T06:06:16;8.20;99.10
29501;DHT22;16450;50.288;10.966;2022-09-20T06:13:32;8.30;99.20
29501;DHT22;16450;50.288;10.966;2022-09-20T06:22:49;8.40;99.60
29501;DHT22;16450;50.288;10.966;2022-09-20T06:26:08;8.40;99.60
29501;DHT22;16450;50.288;10.966;2022-09-20T06:29:12;8.40;99.30
29501;DHT22;16450;50.288;10.966;2022-09-20T06:32:17;8.50;99.60
29501;DHT22;16450;50.288;10.966;2022-09-20T06:35:19;8.50;99.60
29501;DHT22;16450;50.288;10.966;2022-09-20T06:41:58;8.50;99.50
29501;DHT22;16450;50.288;10.966;2022-09-20T06:44:59;8.60;99.90
29501;DHT22;16450;50.288;10.966;2022-09-20T06:48:00;8.60;99.90
29501;DHT22;16450;50.288;10.966;2022-09-20T06:51:01;8.70;99.90
29501;DHT22;16450;50.288;10.966;2022-09-20T06:54:03;8.70;99.90
29501;DHT22;16450;50.288;10.966;2022-09-20T06:57:05;8.80;99.90
29501;DHT22;16450;50.288;10.966;2022-09-20T07:00:06;8.80;99.90
29501;DHT22;16450;50.288;10.966;2022-09-20T07:03:10;8.90;99.90
29501;DHT22;16450;50.288;10.966;2022-09-20T07:06:12;9.00;99.90
29501;DHT22;16450;50.288;10.966;2022-09-20T07:09:17;9.10;99.90
29501;DHT22;16450;50.288;10.966;2022-09-20T07:12:18;9.10;99.90
29501;DHT22;16450;50.288;10.966;2022-09-20T07:15:19;9.20;99.90
29501;DHT22;16450;50.288;10.966;2022-09-20T07:18:22;9.20;99.90
29501;DHT22;16450;50.288;10.966;2022-09-20T07:21:22;9.20;99.80
29501;DHT22;16450;50.288;10.966;2022-09-20T07:24:23;9.20;99.80
29501;DHT22;16450;50.288;10.966;2022-09-20T07:27:24;9.20;99.80
29501;DHT22;16450;50.288;10.966;2022-09-20T07:30:24;9.30;99.90
29501;DHT22;16450;50.288;10.966;2022-09-20T07:33:26;9.30;99.90
29501;DHT22;16450;50.288;10.966;2022-09-20T07:36:27;9.30;99.90
29501;DHT22;16450;50.288;10.966;2022-09-20T07:39:28;9.30;99.90
29501;DHT22;16450;50.288;10.966;2022-09-20T07:42:29;9.30;99.80
29501;DHT22;16450;50.288;10.966;2022-09-20T07:45:30;9.40;99.90
29501;DHT22;16450;50.288;10.966;2022-09-20T07:48:33;9.40;99.90
29501;DHT22;16450;50.288;10.966;2022-09-20T07:51:34;9.40;99.90
29501;DHT22;16450;50.288;10.966;2022-09-20T07:54:35;9.40;99.90
29501;DHT22;16450;50.288;10.966;2022-09-20T07:57:37;9.50;99.90
29501;DHT22;16450;50.288;10.966;2022-09-20T08:00:37;9.60;99.90
29501;DHT22;16450;50.288;10.966;2022-09-20T08:03:38;9.60;99.90
29501;DHT22;16450;50.288;10.966;2022-09-20T08:06:42;9.70;99.90
29501;DHT22;16450;50.288;10.966;2022-09-20T08:09:42;9.70;99.90
29501;DHT22;16450;50.288;10.966;2022-09-20T08:12:43;9.70;99.90
29501;DHT22;16450;50.288;10.966;2022-09-20T08:15:44;9.80;99.90
29501;DHT22;16450;50.288;10.966;2022-09-20T08:18:47;9.80;99.90
29501;DHT22;16450;50.288;10.966;2022-09-20T08:21:50;9.80;99.80
29501;DHT22;16450;50.288;10.966;2022-09-20T08:24:51;9.80;99.90
29501;DHT22;16450;50.288;10.966;2022-09-20T08:27:53;9.80;99.90
29501;DHT22;16450;50.288;10.966;2022-09-20T08:31:06;9.90;99.90
29501;DHT22;16450;50.288;10.966;2022-09-20T08:34:09;9.90;99.90
29501;DHT22;16450;50.288;10.966;2022-09-20T08:37:10;10.00;99.90
29501;DHT22;16450;50.288;10.966;2022-09-20T08:40:14;10.00;99.90
29501;DHT22;16450;50.288;10.966;2022-09-20T08:43:15;10.10;99.90
29501;DHT22;16450;50.288;10.966;2022-09-20T08:46:20;10.10;99.90
29501;DHT22;16450;50.288;10.966;2022-09-20T08:49:25;10.20;99.90
29501;DHT22;16450;50.288;10.966;2022-09-20T08:52:32;10.30;99.90
29501;DHT22;16450;50.288;10.966;2022-09-20T08:55:34;10.40;99.80
29501;DHT22;16450;50.288;10.966;2022-09-20T08:58:38;10.40;99.80
29501;DHT22;16450;50.288;10.966;2022-09-20T09:01:39;10.40;99.70
29501;DHT22;16450;50.288;10.966;2022-09-20T09:04:42;10.40;99.90
29501;DHT22;16450;50.288;10.966;2022-09-20T09:07:45;10.50;99.90
29501;DHT22;16450;50.288;10.966;2022-09-20T09:10:58;10.60;99.90
29501;DHT22;16450;50.288;10.966;2022-09-20T09:17:39;10.70;98.90
29501;DHT22;16450;50.288;10.966;2022-09-20T09:20:40;10.70;99.60
29501;DHT22;16450;50.288;10.966;2022-09-20T09:23:52;10.70;99.90
29501;DHT22;16450;50.288;10.966;2022-09-20T09:27:18;10.90;99.90
29501;DHT22;16450;50.288;10.966;2022-09-20T09:33:42;11.20;99.90
29501;DHT22;16450;50.288;10.966;2022-09-20T09:36:43;11.30;99.90
29501;DHT22;16450;50.288;10.966;2022-09-20T09:39:44;11.40;99.80
29501;DHT22;16450;50.288;10.966;2022-09-20T09:42:56;11.40;99.50
29501;DHT22;16450;50.288;10.966;2022-09-20T09:49:31;11.50;99.50
29501;DHT22;16450;50.288;10.966;2022-09-20T09:52:35;11.60;99.30
29501;DHT22;16450;50.288;10.966;2022-09-20T10:06:39;12.00;98.30
29501;DHT22;16450;50.288;10.966;2022-09-20T10:09:35;12.00;98.10
29501;DHT22;16450;50.288;10.966;2022-09-20T10:13:16;12.20;99.80
29501;DHT22;16450;50.288;10.966;2022-09-20T10:16:48;12.20;97.50
29501;DHT22;16450;50.288;10.966;2022-09-20T10:20:12;12.20;97.20
29501;DHT22;16450;50.288;10.966;2022-09-20T10:30:13;12.30;97.60
29501;DHT22;16450;50.288;10.966;2022-09-20T10:33:22;12.30;98.60
29501;DHT22;16450;50.288;10.966;2022-09-20T10:39:52;12.70;98.90
29501;DHT22;16450;50.288;10.966;2022-09-20T10:43:06;12.90;98.90
29501;DHT22;16450;50.288;10.966;2022-09-20T10:46:37;13.00;97.30
29501;DHT22;16450;50.288;10.966;2022-09-20T10:49:41;13.00;97.10
29501;DHT22;16450;50.288;10.966;2022-09-20T10:53:11;13.00;97.30
29501;DHT22;16450;50.288;10.966;2022-09-20T10:56:29;12.80;95.40
29501;DHT22;16450;50.288;10.966;2022-09-20T10:59:55;12.70;95.30
29501;DHT22;16450;50.288;10.966;2022-09-20T11:06:22;12.30;96.00
29501;DHT22;16450;50.288;10.966;2022-09-20T11:09:27;12.10;95.90
29501;DHT22;16450;50.288;10.966;2022-09-20T11:12:39;12.00;96.50
29501;DHT22;16450;50.288;10.966;2022-09-20T11:15:50;12.00;97.00
29501;DHT22;16450;50.288;10.966;2022-09-20T11:19:03;11.90;97.80
29501;DHT22;16450;50.288;10.966;2022-09-20T11:22:23;12.00;98.10
29501;DHT22;16450;50.288;10.966;2022-09-20T11:25:41;12.10;98.50
29501;DHT22;16450;50.288;10.966;2022-09-20T11:28:51;12.20;98.00
29501;DHT22;16450;50.288;10.966;2022-09-20T11:32:00;12.40;98.70
29501;DHT22;16450;50.288;10.966;2022-09-20T11:35:13;12.50;98.20
29501;DHT22;16450;50.288;10.966;2022-09-20T11:38:31;12.60;97.40
29501;DHT22;16450;50.288;10.966;2022-09-20T11:41:35;12.70;97.30
29501;DHT22;16450;50.288;10.966;2022-09-20T11:44:39;12.90;98.70
29501;DHT22;16450;50.288;10.966;2022-09-20T11:47:45;13.00;98.20
29501;DHT22;16450;50.288;10.966;2022-09-20T11:50:59;13.10;98.20
29501;DHT22;16450;50.288;10.966;2022-09-20T11:57:37;13.40;97.30
29501;DHT22;16450;50.288;10.966;2022-09-20T12:00:41;13.50;99.10
29501;DHT22;16450;50.288;10.966;2022-09-20T12:03:44;13.70;98.40
29501;DHT22;16450;50.288;10.966;2022-09-20T12:07:17;13.80;98.30
29501;DHT22;16450;50.288;10.966;2022-09-20T12:10:24;14.00;95.90
29501;DHT22;16450;50.288;10.966;2022-09-20T12:13:26;14.00;95.20
29501;DHT22;16450;50.288;10.966;2022-09-20T12:16:45;14.00;95.30
29501;DHT22;16450;50.288;10.966;2022-09-20T12:19:45;13.90;93.00
29501;DHT22;16450;50.288;10.966;2022-09-20T12:22:46;13.80;95.20
29501;DHT22;16450;50.288;10.966;2022-09-20T12:26:00;13.70;95.40
29501;DHT22;16450;50.288;10.966;2022-09-20T12:29:49;13.60;94.70
29501;DHT22;16450;50.288;10.966;2022-09-20T12:32:42;13.60;94.70
29501;DHT22;16450;50.288;10.966;2022-09-20T12:35:58;13.70;94.90
29501;DHT22;16450;50.288;10.966;2022-09-20T12:45:17;13.70;97.00
29501;DHT22;16450;50.288;10.966;2022-09-20T12:48:18;13.90;95.80
29501;DHT22;16450;50.288;10.966;2022-09-20T12:51:31;14.00;96.90
29501;DHT22;16450;50.288;10.966;2022-09-20T12:54:51;14.10;94.80
29501;DHT22;16450;50.288;10.966;2022-09-20T13:07:56;14.30;93.20
29501;DHT22;16450;50.288;10.966;2022-09-20T13:14:09;14.50;97.10
29501;DHT22;16450;50.288;10.966;2022-09-20T13:20:22;14.80;96.80
29501;DHT22;16450;50.288;10.966;2022-09-20T13:23:26;14.90;95.00
29501;DHT22;16450;50.288;10.966;2022-09-20T13:26:34;15.10;95.70
29501;DHT22;16450;50.288;10.966;2022-09-20T13:29:40;15.20;95.40
29501;DHT22;16450;50.288;10.966;2022-09-20T13:32:41;15.40;97.00
29501;DHT22;16450;50.288;10.966;2022-09-20T13:35:45;15.50;97.50
29501;DHT22;16450;50.288;10.966;2022-09-20T13:38:46;15.70;96.80
29501;DHT22;16450;50.288;10.966;2022-09-20T13:41:48;15.90;97.20
29501;DHT22;16450;50.288;10.966;2022-09-20T13:44:50;16.10;96.50
29501;DHT22;16450;50.288;10.966;2022-09-20T13:47:52;16.20;95.40
29501;DHT22;16450;50.288;10.966;2022-09-20T13:50:55;16.30;95.00
29501;DHT22;16450;50.288;10.966;2022-09-20T13:54:26;16.40;94.60
29501;DHT22;16450;50.288;10.966;2022-09-20T13:57:28;16.40;90.70
29501;DHT22;16450;50.288;10.966;2022-09-20T14:00:30;16.40;93.60
29501;DHT22;16450;50.288;10.966;2022-09-20T14:03:32;16.40;92.50
29501;DHT22;16450;50.288;10.966;2022-09-20T14:06:34;16.30;92.20
29501;DHT22;16450;50.288;10.966;2022-09-20T14:09:37;16.20;92.20
29501;DHT22;16450;50.288;10.966;2022-09-20T14:12:38;16.10;91.40
29501;DHT22;16450;50.288;10.966;2022-09-20T14:15:44;16.00;92.70
29501;DHT22;16450;50.288;10.966;2022-09-20T14:18:48;15.90;92.00
29501;DHT22;16450;50.288;10.966;2022-09-20T14:21:49;15.90;93.60
29501;DHT22;16450;50.288;10.966;2022-09-20T14:28:19;16.00;91.50
29501;DHT22;16450;50.288;10.966;2022-09-20T14:34:23;16.10;93.50
29501;DHT22;16450;50.288;10.966;2022-09-20T14:37:42;16.20;94.10
29501;DHT22;16450;50.288;10.966;2022-09-20T14:40:46;16.10;91.90
29501;DHT22;16450;50.288;10.966;2022-09-20T14:43:56;15.90;90.40
29501;DHT22;16450;50.288;10.966;2022-09-20T14:46:58;15.50;88.50
29501;DHT22;16450;50.288;10.966;2022-09-20T14:49:59;15.10;89.50
29501;DHT22;16450;50.288;10.966;2022-09-20T15:02:19;13.70;92.70
29501;DHT22;16450;50.288;10.966;2022-09-20T15:05:25;13.50;94.50
29501;DHT22;16450;50.288;10.966;2022-09-20T15:08:26;13.40;95.10
29501;DHT22;16450;50.288;10.966;2022-09-20T15:11:27;13.30;95.60
29501;DHT22;16450;50.288;10.966;2022-09-20T15:14:29;13.20;95.50
29501;DHT22;16450;50.288;10.966;2022-09-20T15:17:29;13.10;95.60
29501;DHT22;16450;50.288;10.966;2022-09-20T15:20:30;13.10;95.70
29501;DHT22;16450;50.288;10.966;2022-09-20T15:23:31;13.00;96.10
29501;DHT22;16450;50.288;10.966;2022-09-20T15:26:32;12.90;96.30
29501;DHT22;16450;50.288;10.966;2022-09-20T15:29:33;12.90;96.30
29501;DHT22;16450;50.288;10.966;2022-09-20T15:32:34;12.90;96.00
29501;DHT22;16450;50.288;10.966;2022-09-20T15:35:34;12.80;95.70
29501;DHT22;16450;50.288;10.966;2022-09-20T15:38:35;12.80;95.60
29501;DHT22;16450;50.288;10.966;2022-09-20T15:41:36;12.80;95.60
29501;DHT22;16450;50.288;10.966;2022-09-20T15:44:37;12.70;95.70
29501;DHT22;16450;50.288;10.966;2022-09-20T15:47:38;12.60;95.50
29501;DHT22;16450;50.288;10.966;2022-09-20T15:50:39;12.60;95.40
29501;DHT22;16450;50.288;10.966;2022-09-20T15:53:53;12.50;95.50
29501;DHT22;16450;50.288;10.966;2022-09-20T15:56:53;12.50;95.60
29501;DHT22;16450;50.288;10.966;2022-09-20T15:59:54;12.50;96.10
29501;DHT22;16450;50.288;10.966;2022-09-20T16:02:55;12.50;96.40
29501;DHT22;16450;50.288;10.966;2022-09-20T16:06:00;12.50;96.40
29501;DHT22;16450;50.288;10.966;2022-09-20T16:09:01;12.50;96.20
29501;DHT22;16450;50.288;10.966;2022-09-20T16:12:01;12.50;96.40
29501;DHT22;16450;50.288;10.966;2022-09-20T16:15:04;12.50;96.60
29501;DHT22;16450;50.288;10.966;2022-09-20T16:18:05;12.50;96.40
29501;DHT22;16450;50.288;10.966;2022-09-20T16:21:24;12.60;96.50
29501;DHT22;16450;50.288;10.966;2022-09-20T16:24:32;12.50;96.30
29501;DHT22;16450;50.288;10.966;2022-09-20T16:27:33;12.50;95.60
29501;DHT22;16450;50.288;10.966;2022-09-20T16:30:34;12.50;95.90
29501;DHT22;16450;50.288;10.966;2022-09-20T16:33:34;12.40;95.50
29501;DHT22;16450;50.288;10.966;2022-09-20T16:36:35;12.40;95.50
29501;DHT22;16450;50.288;10.966;2022-09-20T16:39:36;12.30;95.40
29501;DHT22;16450;50.288;10.966;2022-09-20T16:42:37;12.20;95.00
29501;DHT22;16450;50.288;10.966;2022-09-20T16:45:37;12.00;94.70
29501;DHT22;16450;50.288;10.966;2022-09-20T16:48:39;11.90;94.80
29501;DHT22;16450;50.288;10.966;2022-09-20T16:51:41;11.80;94.80
29501;DHT22;16450;50.288;10.966;2022-09-20T16:54:42;11.70;94.80
29501;DHT22;16450;50.288;10.966;2022-09-20T16:57:42;11.60;95.00
29501;DHT22;16450;50.288;10.966;2022-09-20T17:00:43;11.60;94.90
29501;DHT22;16450;50.288;10.966;2022-09-20T17:03:44;11.50;94.90
29501;DHT22;16450;50.288;10.966;2022-09-20T17:06:46;11.40;95.00
29501;DHT22;16450;50.288;10.966;2022-09-20T17:09:47;11.30;94.70
29501;DHT22;16450;50.288;10.966;2022-09-20T17:12:47;11.30;94.70
29501;DHT22;16450;50.288;10.966;2022-09-20T17:16:03;11.30;94.60
29501;DHT22;16450;50.288;10.966;2022-09-20T17:19:07;11.10;94.10
29501;DHT22;16450;50.288;10.966;2022-09-20T17:22:08;11.10;94.30
29501;DHT22;16450;50.288;10.966;2022-09-20T17:25:09;11.00;94.30
29501;DHT22;16450;50.288;10.966;2022-09-20T17:28:09;11.00;94.40
29501;DHT22;16450;50.288;10.966;2022-09-20T17:31:15;10.90;94.50
29501;DHT22;16450;50.288;10.966;2022-09-20T17:34:16;10.90;94.50
29501;DHT22;16450;50.288;10.966;2022-09-20T17:37:18;10.80;94.70
29501;DHT22;16450;50.288;10.966;2022-09-20T17:40:18;10.80;94.50
29501;DHT22;16450;50.288;10.966;2022-09-20T17:43:19;10.70;94.30
29501;DHT22;16450;50.288;10.966;2022-09-20T17:46:25;10.70;94.20
29501;DHT22;16450;50.288;10.966;2022-09-20T17:49:29;10.60;94.10
29501;DHT22;16450;50.288;10.966;2022-09-20T17:52:30;10.50;94.30
29501;DHT22;16450;50.288;10.966;2022-09-20T17:55:31;10.50;94.40
29501;DHT22;16450;50.288;10.966;2022-09-20T17:58:34;10.50;94.30
29501;DHT22;16450;50.288;10.966;2022-09-20T18:01:36;10.40;94.30
29501;DHT22;16450;50.288;10.966;2022-09-20T18:04:37;10.40;94.50
29501;DHT22;16450;50.288;10.966;2022-09-20T18:07:37;10.30;94.50
29501;DHT22;16450;50.288;10.966;2022-09-20T18:10:38;10.30;94.70
29501;DHT22;16450;50.288;10.966;2022-09-20T18:13:38;10.30;94.80
29501;DHT22;16450;50.288;10.966;2022-09-20T18:16:39;10.30;94.70
29501;DHT22;16450;50.288;10.966;2022-09-20T18:19:40;10.20;94.70
29501;DHT22;16450;50.288;10.966;2022-09-20T18:22:47;10.30;94.60
29501;DHT22;16450;50.288;10.966;2022-09-20T18:25:47;10.20;94.40
29501;DHT22;16450;50.288;10.966;2022-09-20T18:32:11;10.10;94.30
29501;DHT22;16450;50.288;10.966;2022-09-20T18:35:12;10.10;94.20
29501;DHT22;16450;50.288;10.966;2022-09-20T18:38:12;10.00;94.10
29501;DHT22;16450;50.288;10.966;2022-09-20T18:41:17;10.00;94.10
29501;DHT22;16450;50.288;10.966;2022-09-20T18:44:18;9.90;94.00
29501;DHT22;16450;50.288;10.966;2022-09-20T18:47:19;9.80;93.90
29501;DHT22;16450;50.288;10.966;2022-09-20T18:50:20;9.80;93.90
29501;DHT22;16450;50.288;10.966;2022-09-20T18:53:20;9.70;94.00
29501;DHT22;16450;50.288;10.966;2022-09-20T18:56:29;9.70;94.00
29501;DHT22;16450;50.288;10.966;2022-09-20T18:59:30;9.60;93.90
29501;DHT22;16450;50.288;10.966;2022-09-20T19:05:57;9.60;93.80
29501;DHT22;16450;50.288;10.966;2022-09-20T19:09:05;9.50;93.70
29501;DHT22;16450;50.288;10.966;2022-09-20T19:12:22;9.50;93.80
29501;DHT22;16450;50.288;10.966;2022-09-20T19:22:31;9.30;93.70
29501;DHT22;16450;50.288;10.966;2022-09-20T19:25:39;9.20;93.90
29501;DHT22;16450;50.288;10.966;2022-09-20T19:28:42;9.20;93.90
29501;DHT22;16450;50.288;10.966;2022-09-20T19:31:44;9.10;94.00
29501;DHT22;16450;50.288;10.966;2022-09-20T19:34:49;9.10;94.10
29501;DHT22;16450;50.288;10.966;2022-09-20T19:38:02;9.10;93.90
29501;DHT22;16450;50.288;10.966;2022-09-20T19:48:39;9.00;93.80
29501;DHT22;16450;50.288;10.966;2022-09-20T19:51:41;8.90;93.60
29501;DHT22;16450;50.288;10.966;2022-09-20T19:54:43;8.80;93.70
29501;DHT22;16450;50.288;10.966;2022-09-20T19:57:46;8.80;93.70
29501;DHT22;16450;50.288;10.966;2022-09-20T20:00:47;8.70;93.70
29501;DHT22;16450;50.288;10.966;2022-09-20T20:03:52;8.70;93.70
29501;DHT22;16450;50.288;10.966;2022-09-20T20:06:58;8.60;93.60
29501;DHT22;16450;50.288;10.966;2022-09-20T20:13:59;8.50;93.50
29501;DHT22;16450;50.288;10.966;2022-09-20T20:17:24;8.50;93.40
29501;DHT22;16450;50.288;10.966;2022-09-20T20:20:32;8.40;93.60
29501;DHT22;16450;50.288;10.966;2022-09-20T20:23:50;8.40;93.60
29501;DHT22;16450;50.288;10.966;2022-09-20T20:26:52;8.30;93.50
29501;DHT22;16450;50.288;10.966;2022-09-20T20:29:56;8.30;93.60
29501;DHT22;16450;50.288;10.966;2022-09-20T20:32:57;8.30;93.50
29501;DHT22;16450;50.288;10.966;2022-09-20T20:35:59;8.20;93.70
29501;DHT22;16450;50.288;10.966;2022-09-20T20:39:00;8.20;93.50
29501;DHT22;16450;50.288;10.966;2022-09-20T20:42:02;8.20;93.60
29501;DHT22;16450;50.288;10.966;2022-09-20T20:45:04;8.10;93.70
29501;DHT22;16450;50.288;10.966;2022-09-20T20:48:05;8.10;93.90
29501;DHT22;16450;50.288;10.966;2022-09-20T20:51:16;8.00;93.80
29501;DHT22;16450;50.288;10.966;2022-09-20T20:54:17;8.00;93.70
29501;DHT22;16450;50.288;10.966;2022-09-20T20:57:18;7.90;94.30
29501;DHT22;16450;50.288;10.966;2022-09-20T21:00:18;7.90;94.40
29501;DHT22;16450;50.288;10.966;2022-09-20T21:03:19;7.90;94.40
29501;DHT22;16450;50.288;10.966;2022-09-20T21:06:21;7.90;94.40
29501;DHT22;16450;50.288;10.966;2022-09-20T21:09:24;7.80;94.30
29501;DHT22;16450;50.288;10.966;2022-09-20T21:12:25;7.80;94.30
29501;DHT22;16450;50.288;10.966;2022-09-20T21:15:26;7.80;94.20
29501;DHT22;16450;50.288;10.966;2022-09-20T21:18:27;7.70;94.10
29501;DHT22;16450;50.288;10.966;2022-09-20T21:21:33;7.60;94.10
29501;DHT22;16450;50.288;10.966;2022-09-20T21:24:34;7.60;94.10
29501;DHT22;16450;50.288;10.966;2022-09-20T21:27:35;7.60;94.10
29501;DHT22;16450;50.288;10.966;2022-09-20T21:30:36;7.60;94.10
29501;DHT22;16450;50.288;10.966;2022-09-20T21:33:38;7.50;94.10
29501;DHT22;16450;50.288;10.966;2022-09-20T21:36:40;7.50;94.10
29501;DHT22;16450;50.288;10.966;2022-09-20T21:39:41;7.40;94.20
29501;DHT22;16450;50.288;10.966;2022-09-20T21:42:42;7.40;94.20
29501;DHT22;16450;50.288;10.966;2022-09-20T21:45:42;7.30;94.10
29501;DHT22;16450;50.288;10.966;2022-09-20T21:48:47;7.30;94.00
29501;DHT22;16450;50.288;10.966;2022-09-20T21:51:47;7.30;94.10
29501;DHT22;16450;50.288;10.966;2022-09-20T21:54:51;7.20;94.10
29501;DHT22;16450;50.288;10.966;2022-09-20T21:57:51;7.20;94.50
29501;DHT22;16450;50.288;10.966;2022-09-20T22:04:04;7.10;94.00
29501;DHT22;16450;50.288;10.966;2022-09-20T22:07:05;7.10;94.00
29501;DHT22;16450;50.288;10.966;2022-09-20T22:10:06;7.10;94.00
29501;DHT22;16450;50.288;10.966;2022-09-20T22:13:06;7.00;94.00
29501;DHT22;16450;50.288;10.966;2022-09-20T22:16:10;7.00;94.10
29501;DHT22;16450;50.288;10.966;2022-09-20T22:19:13;6.90;94.10
29501;DHT22;16450;50.288;10.966;2022-09-20T22:22:14;6.90;94.00
29501;DHT22;16450;50.288;10.966;2022-09-20T22:25:14;6.80;94.00
29501;DHT22;16450;50.288;10.966;2022-09-20T22:28:15;6.80;94.00
29501;DHT22;16450;50.288;10.966;2022-09-20T22:31:30;6.70;94.00
29501;DHT22;16450;50.288;10.966;2022-09-20T22:34:31;6.70;94.00
29501;DHT22;16450;50.288;10.966;2022-09-20T22:37:32;6.60;94.00
29501;DHT22;16450;50.288;10.966;2022-09-20T22:40:32;6.60;94.10
29501;DHT22;16450;50.288;10.966;2022-09-20T22:43:34;6.60;94.10
29501;DHT22;16450;50.288;10.966;2022-09-20T22:46:35;6.50;94.10
29501;DHT22;16450;50.288;10.966;2022-09-20T22:49:36;6.50;94.10
29501;DHT22;16450;50.288;10.966;2022-09-20T22:52:37;6.50;94.10
29501;DHT22;16450;50.288;10.966;2022-09-20T22:55:37;6.40;94.10
29501;DHT22;16450;50.288;10.966;2022-09-20T22:58:40;6.40;94.20
29501;DHT22;16450;50.288;10.966;2022-09-20T23:01:43;6.40;94.40
29501;DHT22;16450;50.288;10.966;2022-09-20T23:04:44;6.40;94.50
29501;DHT22;16450;50.288;10.966;2022-09-20T23:07:47;6.40;94.60
29501;DHT22;16450;50.288;10.966;2022-09-20T23:10:48;6.30;94.50
29501;DHT22;16450;50.288;10.966;2022-09-20T23:13:58;6.30;94.50
29501;DHT22;16450;50.288;10.966;2022-09-20T23:16:59;6.30;94.50
29501;DHT22;16450;50.288;10.966;2022-09-20T23:20:00;6.30;94.60
29501;DHT22;16450;50.288;10.966;2022-09-20T23:23:01;6.30;94.80
29501;DHT22;16450;50.288;10.966;2022-09-20T23:26:06;6.30;95.00
29501;DHT22;16450;50.288;10.966;2022-09-20T23:29:12;6.30;95.10
29501;DHT22;16450;50.288;10.966;2022-09-20T23:32:13;6.20;95.20
29501;DHT22;16450;50.288;10.966;2022-09-20T23:35:14;6.20;95.30
29501;DHT22;16450;50.288;10.966;2022-09-20T23:38:14;6.30;95.30
29501;DHT22;16450;50.288;10.966;2022-09-20T23:41:17;6.30;95.20
29501;DHT22;16450;50.288;10.966;2022-09-20T23:44:18;6.20;95.00
29501;DHT22;16450;50.288;10.966;2022-09-20T23:47:18;6.20;94.80
29501;DHT22;16450;50.288;10.966;2022-09-20T23:50:19;6.20;94.80
29501;DHT22;16450;50.288;10.966;2022-09-20T23:53:20;6.10;94.50